createdAt,value
2018-12-11T00:00:13.577Z,4.90
2018-12-11T00:01:13.567Z,4.70
2018-12-11T00:02:13.555Z,6.40
2018-12-11T00:03:13.547Z,6.50
2018-12-11T00:04:13.579Z,5.70
2018-12-11T00:05:13.523Z,6.40
2018-12-11T00:06:13.511Z,6.50
2018-12-11T00:07:13.505Z,6.70
2018-12-11T00:08:13.490Z,5.90
2018-12-11T00:09:13.479Z,6.10
2018-12-11T00:10:13.496Z,5.90
2018-12-11T00:11:13.479Z,4.90
2018-12-11T00:12:13.448Z,6.00
2018-12-11T00:13:13.437Z,5.70
2018-12-11T00:14:13.427Z,6.30
2018-12-11T00:15:13.439Z,5.60
2018-12-11T00:16:13.406Z,5.90
2018-12-11T00:17:13.417Z,5.80
2018-12-11T00:18:13.384Z,5.90
2018-12-11T00:19:13.372Z,6.00
2018-12-11T00:20:13.383Z,5.70
2018-12-11T00:21:13.354Z,5.80
2018-12-11T00:22:13.337Z,5.80
2018-12-11T00:23:13.346Z,6.20
2018-12-11T00:24:13.320Z,5.90
2018-12-11T00:25:13.333Z,5.20
2018-12-11T00:26:13.293Z,5.10
2018-12-11T00:27:13.290Z,4.90
2018-12-11T00:28:13.274Z,6.00
2018-12-11T00:29:13.267Z,6.40
2018-12-11T00:30:13.324Z,5.50
2018-12-11T00:31:13.271Z,6.80
2018-12-11T00:32:13.230Z,6.10
2018-12-11T00:33:13.218Z,5.80
2018-12-11T00:34:13.207Z,6.20
2018-12-11T00:35:13.219Z,6.40
2018-12-11T00:36:13.192Z,6.80
2018-12-11T00:37:13.186Z,6.50
2018-12-11T00:38:13.164Z,5.70
2018-12-11T00:39:13.153Z,6.30
2018-12-11T00:40:13.165Z,6.60
2018-12-11T00:41:13.130Z,6.00
2018-12-11T00:42:13.125Z,6.80
2018-12-11T00:43:13.119Z,6.40
2018-12-11T00:44:13.098Z,6.70
2018-12-11T00:45:13.111Z,5.60
2018-12-11T00:46:13.077Z,6.10
2018-12-11T00:47:13.066Z,5.80
2018-12-11T00:48:13.054Z,7.20
2018-12-11T00:49:13.052Z,7.10
2018-12-11T00:50:13.059Z,5.70
2018-12-11T00:51:13.021Z,6.40
2018-12-11T00:52:13.010Z,6.80
2018-12-11T00:53:13.005Z,6.60
2018-12-11T00:54:12.988Z,6.50
2018-12-11T00:55:13.015Z,6.30
2018-12-11T00:56:12.971Z,6.70
2018-12-11T00:57:12.955Z,7.10
2018-12-11T00:58:12.944Z,6.50
2018-12-11T00:59:12.933Z,7.30
2018-12-11T01:00:12.950Z,6.90
2018-12-11T01:01:12.944Z,7.40
2018-12-11T01:02:12.904Z,8.00
2018-12-11T01:03:12.891Z,7.20
2018-12-11T01:04:12.880Z,7.30
2018-12-11T01:05:12.899Z,8.10
2018-12-11T01:06:12.858Z,7.70
2018-12-11T01:07:12.866Z,7.70
2018-12-11T01:08:12.836Z,8.40
2018-12-11T01:09:12.824Z,8.70
2018-12-11T01:10:12.846Z,8.80
2018-12-11T01:11:12.805Z,7.50
2018-12-11T01:12:12.797Z,8.30
2018-12-11T01:13:12.812Z,8.30
2018-12-11T01:14:12.770Z,8.80
2018-12-11T01:15:12.784Z,8.60
2018-12-11T01:16:12.750Z,8.40
2018-12-11T01:17:12.739Z,8.40
2018-12-11T01:18:12.727Z,8.00
2018-12-11T01:25:35.988Z,8.00
2018-12-11T01:25:56.250Z,7.20
2018-12-11T01:26:56.243Z,7.80
2018-12-11T01:27:56.332Z,8.70
2018-12-11T01:28:56.218Z,8.70
2018-12-11T01:29:56.228Z,8.50
2018-12-11T01:30:56.224Z,8.50
2018-12-11T01:31:56.185Z,8.70
2018-12-11T01:32:56.176Z,8.20
2018-12-11T01:33:56.164Z,8.90
2018-12-11T01:34:56.153Z,8.40
2018-12-11T01:35:56.174Z,7.80
2018-12-11T01:36:56.130Z,8.20
2018-12-11T01:37:56.124Z,7.80
2018-12-11T01:38:56.107Z,7.90
2018-12-11T01:39:56.096Z,7.10
2018-12-11T01:40:56.108Z,7.60
2018-12-11T01:41:56.101Z,7.30
2018-12-11T01:42:56.066Z,6.90
2018-12-11T01:43:56.053Z,6.70
2018-12-11T01:44:56.042Z,5.90
2018-12-11T01:45:56.054Z,5.90
2018-12-11T01:46:56.020Z,7.60
2018-12-11T01:47:56.028Z,6.00
2018-12-11T01:48:56.000Z,6.50
2018-12-11T01:49:55.990Z,7.20
2018-12-11T01:50:56.000Z,6.80
2018-12-11T01:51:55.965Z,6.50
2018-12-11T01:52:55.957Z,6.20
2018-12-11T01:53:55.951Z,7.60
2018-12-11T01:54:55.931Z,7.20
2018-12-11T01:55:55.948Z,7.20
2018-12-11T01:56:55.915Z,7.20
2018-12-11T01:57:55.900Z,8.30
2018-12-11T01:58:55.889Z,7.90
2018-12-11T01:59:55.888Z,7.70
2018-12-11T02:00:55.890Z,8.60
2018-12-11T02:01:55.858Z,8.80
2018-12-11T02:02:55.855Z,9.20
2018-12-11T02:03:55.833Z,8.00
2018-12-11T02:04:55.823Z,8.60
2018-12-11T02:05:55.854Z,9.70
2018-12-11T02:06:55.801Z,8.90
2018-12-11T02:07:55.791Z,8.10
2018-12-11T02:08:55.780Z,9.50
2018-12-11T02:09:55.771Z,9.90
2018-12-11T02:10:55.781Z,10.30
2018-12-11T02:11:55.750Z,10.10
2018-12-11T02:12:55.747Z,11.10
2018-12-11T02:13:55.726Z,10.40
2018-12-11T02:14:55.716Z,10.90
2018-12-11T02:15:55.731Z,11.20
2018-12-11T02:16:55.694Z,11.70
2018-12-11T02:17:55.682Z,11.30
2018-12-11T02:18:55.676Z,11.30
2018-12-11T02:19:55.660Z,11.70
2018-12-11T02:20:55.679Z,11.60
2018-12-11T02:21:55.640Z,11.40
2018-12-11T02:22:55.627Z,9.80
2018-12-11T02:23:55.617Z,11.30
2018-12-11T02:24:55.632Z,10.80
2018-12-11T02:25:55.622Z,11.40
2018-12-11T02:26:55.586Z,13.30
2018-12-11T02:27:55.573Z,10.20
2018-12-11T02:28:55.563Z,11.20
2018-12-11T02:29:55.552Z,11.50
2018-12-11T02:30:55.837Z,10.90
2018-12-11T02:31:55.533Z,11.00
2018-12-11T02:32:55.519Z,11.60
2018-12-11T02:33:55.522Z,10.70
2018-12-11T02:34:55.500Z,11.00
2018-12-11T02:35:55.495Z,10.10
2018-12-11T02:36:55.519Z,11.40
2018-12-11T02:37:55.466Z,10.50
2018-12-11T02:38:55.454Z,8.90
2018-12-11T02:39:55.464Z,9.40
2018-12-11T02:40:55.437Z,10.40
2018-12-11T02:41:55.446Z,11.30
2018-12-11T02:42:55.421Z,10.70
2018-12-11T02:43:55.404Z,9.30
2018-12-11T02:44:55.392Z,9.80
2018-12-11T02:45:55.380Z,8.90
2018-12-11T02:46:55.390Z,10.30
2018-12-11T02:47:55.359Z,10.50
2018-12-11T02:48:55.353Z,10.20
2018-12-11T02:49:55.335Z,10.00
2018-12-11T02:50:55.324Z,8.00
2018-12-11T02:51:55.351Z,9.10
2018-12-11T02:52:55.311Z,9.00
2018-12-11T02:53:55.293Z,8.20
2018-12-11T02:54:55.324Z,9.90
2018-12-11T02:55:55.271Z,8.70
2018-12-11T02:56:55.374Z,9.90
2018-12-11T02:57:55.249Z,9.90
2018-12-11T02:58:55.243Z,8.60
2018-12-11T02:59:55.225Z,9.10
2018-12-11T03:00:55.220Z,9.90
2018-12-11T03:01:55.232Z,9.80
2018-12-11T03:02:55.192Z,8.90
2018-12-11T03:03:55.182Z,9.50
2018-12-11T03:04:55.171Z,7.80
2018-12-11T03:05:55.162Z,9.20
2018-12-11T03:06:55.191Z,9.00
2018-12-11T03:07:55.139Z,9.40
2018-12-11T03:08:55.128Z,10.50
2018-12-11T03:09:55.118Z,9.70
2018-12-11T03:10:55.107Z,9.00
2018-12-11T03:11:55.122Z,9.30
2018-12-11T03:12:55.120Z,10.60
2018-12-11T03:13:55.076Z,9.10
2018-12-11T03:14:55.062Z,9.30
2018-12-11T03:15:55.052Z,9.80
2018-12-11T03:16:55.065Z,10.10
2018-12-11T03:17:55.034Z,9.30
2018-12-11T03:18:55.032Z,9.60
2018-12-11T03:19:55.008Z,9.60
2018-12-11T03:20:54.998Z,8.40
2018-12-11T03:21:55.012Z,9.30
2018-12-11T03:22:54.975Z,10.60
2018-12-11T03:23:54.964Z,10.20
2018-12-11T03:24:54.961Z,10.60
2018-12-11T03:25:54.944Z,10.20
2018-12-11T03:26:54.957Z,10.30
2018-12-11T03:27:54.922Z,10.90
2018-12-11T03:28:54.916Z,10.20
2018-12-11T03:29:54.905Z,10.10
2018-12-11T03:30:54.898Z,11.00
2018-12-11T03:31:54.901Z,11.00
2018-12-11T03:32:54.870Z,11.10
2018-12-11T03:33:54.861Z,11.60
2018-12-11T03:34:54.845Z,11.10
2018-12-11T03:35:54.834Z,12.00
2018-12-11T03:36:54.862Z,11.20
2018-12-11T03:37:54.822Z,12.00
2018-12-11T03:38:54.801Z,12.00
2018-12-11T03:39:54.794Z,12.50
2018-12-11T03:40:54.784Z,12.30
2018-12-11T03:41:54.797Z,12.70
2018-12-11T03:42:54.760Z,13.40
2018-12-11T03:43:54.753Z,13.50
2018-12-11T03:44:54.737Z,13.60
2018-12-11T03:45:54.726Z,13.60
2018-12-11T03:46:54.738Z,13.80
2018-12-11T03:47:54.704Z,13.50
2018-12-11T03:48:54.693Z,14.80
2018-12-11T03:49:54.686Z,14.30
2018-12-11T03:50:54.676Z,14.70
2018-12-11T03:51:54.684Z,14.50
2018-12-11T03:52:54.652Z,15.20
2018-12-11T03:53:54.637Z,14.10
2018-12-11T03:54:54.630Z,15.10
2018-12-11T03:55:54.618Z,15.00
2018-12-11T03:56:54.645Z,13.90
2018-12-11T03:57:54.595Z,13.80
2018-12-11T03:58:54.585Z,13.60
2018-12-11T03:59:54.576Z,14.60
2018-12-11T04:00:54.563Z,14.80
2018-12-11T04:01:54.580Z,14.60
2018-12-11T04:02:54.548Z,15.40
2018-12-11T04:03:54.530Z,14.50
2018-12-11T04:04:54.518Z,14.40
2018-12-11T04:05:54.508Z,15.80
2018-12-11T04:06:54.498Z,14.00
2018-12-11T04:07:54.511Z,15.20
2018-12-11T04:08:54.488Z,15.60
2018-12-11T04:09:54.466Z,15.80
2018-12-11T04:10:54.453Z,15.90
2018-12-11T04:11:54.443Z,16.30
2018-12-11T04:12:54.453Z,14.80
2018-12-11T04:13:54.426Z,15.30
2018-12-11T04:14:54.426Z,15.20
2018-12-11T04:15:54.398Z,14.30
2018-12-11T04:16:54.389Z,14.40
2018-12-11T04:17:59.132Z,15.00
2018-12-11T04:18:54.367Z,15.60
2018-12-11T04:19:54.358Z,13.90
2018-12-11T04:20:54.351Z,13.30
2018-12-11T04:21:54.331Z,14.10
2018-12-11T04:22:54.350Z,13.70
2018-12-11T04:23:54.311Z,13.20
2018-12-11T04:24:54.302Z,14.00
2018-12-11T04:25:54.295Z,14.60
2018-12-11T04:26:54.316Z,14.20
2018-12-11T04:27:54.287Z,13.90
2018-12-11T04:28:54.257Z,13.80
2018-12-11T04:29:54.246Z,14.50
2018-12-11T04:30:54.236Z,13.60
2018-12-11T04:31:54.224Z,14.40
2018-12-11T04:32:54.244Z,14.00
2018-12-11T04:33:54.202Z,14.60
2018-12-11T04:34:54.192Z,14.20
2018-12-11T04:35:54.182Z,14.50
2018-12-11T04:36:54.169Z,14.90
2018-12-11T04:37:54.183Z,14.40
2018-12-11T04:38:54.161Z,14.80
2018-12-11T04:39:54.144Z,14.90
2018-12-11T04:40:54.129Z,14.10
2018-12-11T04:41:54.113Z,13.60
2018-12-11T04:42:54.134Z,13.50
2018-12-11T04:43:54.095Z,14.80
2018-12-11T04:44:54.096Z,13.60
2018-12-11T04:45:54.078Z,14.60
2018-12-11T04:46:54.063Z,13.70
2018-12-11T04:47:54.071Z,13.10
2018-12-11T04:48:54.040Z,13.10
2018-12-11T04:49:54.027Z,12.70
2018-12-11T04:50:54.018Z,11.00
2018-12-11T04:51:54.019Z,12.60
2018-12-11T04:52:54.026Z,11.70
2018-12-11T04:53:53.985Z,10.90
2018-12-11T04:54:53.974Z,10.90
2018-12-11T04:55:54.037Z,11.20
2018-12-11T04:56:53.953Z,10.70
2018-12-11T04:57:53.978Z,11.30
2018-12-11T04:58:53.930Z,9.90
2018-12-11T04:59:53.918Z,11.90
2018-12-11T05:00:53.907Z,10.60
2018-12-11T05:01:53.896Z,11.00
2018-12-11T05:02:53.911Z,10.10
2018-12-11T05:03:53.894Z,10.10
2018-12-11T05:04:53.864Z,10.30
2018-12-11T05:05:53.854Z,10.60
2018-12-11T05:06:53.840Z,11.00
2018-12-11T05:07:53.853Z,10.30
2018-12-11T05:08:53.821Z,8.70
2018-12-11T05:09:53.841Z,9.60
2018-12-11T05:10:53.800Z,10.80
2018-12-11T05:11:53.792Z,8.60
2018-12-11T05:12:53.800Z,9.20
2018-12-11T05:13:53.766Z,9.30
2018-12-11T05:14:53.758Z,8.60
2018-12-11T05:15:53.757Z,9.20
2018-12-11T05:16:53.734Z,10.00
2018-12-11T05:17:53.747Z,10.40
2018-12-11T05:18:53.710Z,9.80
2018-12-11T05:19:53.700Z,10.40
2018-12-11T05:20:53.695Z,10.30
2018-12-11T05:21:53.705Z,10.40
2018-12-11T05:22:53.694Z,9.70
2018-12-11T05:23:53.660Z,11.60
2018-12-11T05:24:53.646Z,11.90
2018-12-11T05:25:53.637Z,9.10
2018-12-11T05:26:53.624Z,11.30
2018-12-11T05:27:53.645Z,11.90
2018-12-11T05:28:53.605Z,11.50
2018-12-11T05:29:53.593Z,9.20
2018-12-11T05:30:53.580Z,10.50
2018-12-11T05:31:53.570Z,11.80
2018-12-11T05:32:53.584Z,10.30
2018-12-11T05:33:53.569Z,10.10
2018-12-11T05:34:53.541Z,9.90
2018-12-11T05:35:53.527Z,11.20
2018-12-11T05:36:53.516Z,12.00
2018-12-11T05:37:53.505Z,12.40
2018-12-11T05:38:53.521Z,11.90
2018-12-11T05:39:53.499Z,12.10
2018-12-11T05:40:53.473Z,11.90
2018-12-11T05:41:53.461Z,12.80
2018-12-11T05:42:53.450Z,13.60
2018-12-11T05:43:53.461Z,12.60
2018-12-11T05:44:53.428Z,12.40
2018-12-11T05:45:53.422Z,13.50
2018-12-11T05:46:53.406Z,13.50
2018-12-11T05:47:53.398Z,14.50
2018-12-11T05:48:53.407Z,14.10
2018-12-11T05:49:53.373Z,12.40
2018-12-11T05:50:53.362Z,11.70
2018-12-11T05:51:53.361Z,13.00
2018-12-11T05:52:53.341Z,13.80
2018-12-11T05:53:53.353Z,12.20
2018-12-11T05:54:53.318Z,11.20
2018-12-11T05:55:53.309Z,13.00
2018-12-11T05:56:53.299Z,12.20
2018-12-11T05:57:53.304Z,14.30
2018-12-11T05:58:53.300Z,14.10
2018-12-11T05:59:53.268Z,14.10
2018-12-11T06:00:53.257Z,15.20
2018-12-11T06:01:53.242Z,12.80
2018-12-11T06:02:53.234Z,14.40
2018-12-11T06:03:53.280Z,14.10
2018-12-11T06:04:53.212Z,14.80
2018-12-11T06:05:53.211Z,14.50
2018-12-11T06:06:53.190Z,15.60
2018-12-11T06:07:53.177Z,16.10
2018-12-11T06:08:53.189Z,15.20
2018-12-11T06:09:53.166Z,15.20
2018-12-11T06:10:53.170Z,16.50
2018-12-11T06:11:53.137Z,16.10
2018-12-11T06:12:53.124Z,17.10
2018-12-11T06:13:53.157Z,17.40
2018-12-11T06:14:53.100Z,18.30
2018-12-11T06:15:53.090Z,19.00
2018-12-11T06:16:53.091Z,17.30
2018-12-11T06:17:53.069Z,17.40
2018-12-11T06:18:53.082Z,18.70
2018-12-11T06:19:53.048Z,18.30
2018-12-11T06:20:53.036Z,20.70
2018-12-11T06:21:53.024Z,18.50
2018-12-11T06:22:53.022Z,20.70
2018-12-11T06:23:53.027Z,20.00
2018-12-11T06:24:52.996Z,21.70
2018-12-11T06:25:52.983Z,21.90
2018-12-11T06:26:52.976Z,20.80
2018-12-11T06:27:52.959Z,20.30
2018-12-11T06:28:52.982Z,22.90
2018-12-11T06:29:52.938Z,21.90
2018-12-11T06:30:52.937Z,21.90
2018-12-11T06:31:52.915Z,22.80
2018-12-11T06:32:52.910Z,21.60
2018-12-11T06:33:52.927Z,20.90
2018-12-11T06:34:52.897Z,17.10
2018-12-11T06:35:52.870Z,19.60
2018-12-11T06:36:52.865Z,19.40
2018-12-11T06:37:52.850Z,19.70
2018-12-11T06:38:52.862Z,20.30
2018-12-11T06:39:52.830Z,15.20
2018-12-11T06:40:52.816Z,17.20
2018-12-11T06:41:52.821Z,14.90
2018-12-11T06:42:52.794Z,16.80
2018-12-11T06:43:52.817Z,16.20
2018-12-11T06:44:52.782Z,15.10
2018-12-11T06:45:52.763Z,15.70
2018-12-11T06:46:52.754Z,13.90
2018-12-11T06:47:52.747Z,15.40
2018-12-11T06:48:52.756Z,16.20
2018-12-11T06:49:52.718Z,12.80
2018-12-11T06:50:52.707Z,13.00
2018-12-11T06:51:52.700Z,11.30
2018-12-11T06:52:52.688Z,11.80
2018-12-11T06:53:52.699Z,12.10
2018-12-11T06:54:52.675Z,11.40
2018-12-11T06:55:52.653Z,12.30
2018-12-11T06:56:52.644Z,10.80
2018-12-11T06:57:52.631Z,10.80
2018-12-11T06:58:52.642Z,9.70
2018-12-11T06:59:52.609Z,10.10
2018-12-11T07:00:52.607Z,9.00
2018-12-11T07:01:52.613Z,9.80
2018-12-11T07:02:52.715Z,10.20
2018-12-11T07:03:52.851Z,9.60
2018-12-11T07:04:52.555Z,11.10
2018-12-11T07:05:52.549Z,11.80
2018-12-11T07:06:52.536Z,10.90
2018-12-11T07:07:52.530Z,11.50
2018-12-11T07:08:52.534Z,12.00
2018-12-11T07:09:52.501Z,12.40
2018-12-11T07:10:52.490Z,12.50
2018-12-11T07:11:52.481Z,11.20
2018-12-11T07:12:52.469Z,12.00
2018-12-11T07:13:52.460Z,11.90
2018-12-11T07:14:52.477Z,12.70
2018-12-11T07:15:52.435Z,12.20
2018-12-11T07:16:52.424Z,12.00
2018-12-11T07:17:52.413Z,13.60
2018-12-11T07:18:52.403Z,12.90
2018-12-11T07:19:52.422Z,12.60
2018-12-11T07:20:52.427Z,13.10
2018-12-11T07:21:52.369Z,14.20
2018-12-11T07:22:52.358Z,13.20
2018-12-11T07:23:52.348Z,14.40
2018-12-11T07:24:52.359Z,14.50
2018-12-11T07:25:52.336Z,14.10
2018-12-11T07:26:52.315Z,14.90
2018-12-11T07:27:52.306Z,15.90
2018-12-11T07:28:52.357Z,15.20
2018-12-11T07:29:52.305Z,15.90
2018-12-11T07:30:52.273Z,15.80
2018-12-11T07:31:52.366Z,14.40
2018-12-11T07:32:52.249Z,15.90
2018-12-11T07:33:52.242Z,16.20
2018-12-11T07:34:52.253Z,16.60
2018-12-11T07:35:52.219Z,17.30
2018-12-11T07:36:52.206Z,17.60
2018-12-11T07:37:52.213Z,16.90
2018-12-11T07:38:52.185Z,17.20
2018-12-11T07:39:52.195Z,15.60
2018-12-11T07:40:52.161Z,15.30
2018-12-11T07:41:52.151Z,17.00
2018-12-11T07:42:52.143Z,15.80
2018-12-11T07:43:52.142Z,16.70
2018-12-11T07:44:52.145Z,18.10
2018-12-11T07:45:52.110Z,16.30
2018-12-11T07:46:52.101Z,17.10
2018-12-11T07:47:52.086Z,16.80
2018-12-11T07:48:52.075Z,14.80
2018-12-11T07:49:52.111Z,16.40
2018-12-11T07:50:52.053Z,15.90
2018-12-11T07:51:52.107Z,16.50
2018-12-11T07:52:52.094Z,15.70
2018-12-11T07:53:52.021Z,15.70
2018-12-11T07:54:52.032Z,17.60
2018-12-11T07:55:52.013Z,15.80
2018-12-11T07:56:51.988Z,16.40
2018-12-11T07:57:51.976Z,16.80
2018-12-11T07:58:51.977Z,14.50
2018-12-11T07:59:51.979Z,15.10
2018-12-11T08:00:51.947Z,15.10
2018-12-11T08:01:51.947Z,16.10
2018-12-11T08:02:51.923Z,15.00
2018-12-11T08:03:51.911Z,15.20
2018-12-11T08:04:51.929Z,15.10
2018-12-11T08:05:51.889Z,15.00
2018-12-11T08:06:51.879Z,15.00
2018-12-11T08:07:51.872Z,15.40
2018-12-11T08:08:51.856Z,14.50
2018-12-11T08:09:51.871Z,14.80
2018-12-11T08:10:51.851Z,14.80
2018-12-11T08:11:51.826Z,13.80
2018-12-11T08:12:51.817Z,13.60
2018-12-11T08:13:51.811Z,13.80
2018-12-11T08:14:51.815Z,13.30
2018-12-11T08:15:51.785Z,13.60
2018-12-11T08:16:51.772Z,14.70
2018-12-11T08:17:51.770Z,12.80
2018-12-11T08:18:51.765Z,12.00
2018-12-11T08:19:51.765Z,10.30
2018-12-11T08:20:51.726Z,12.00
2018-12-11T08:21:51.721Z,12.60
2018-12-11T08:22:51.714Z,12.10
2018-12-11T08:23:51.707Z,11.90
2018-12-11T08:24:51.706Z,11.20
2018-12-11T08:25:51.671Z,10.40
2018-12-11T08:26:51.694Z,11.30
2018-12-11T08:27:51.659Z,10.30
2018-12-11T08:28:51.639Z,11.70
2018-12-11T08:29:51.656Z,11.50
2018-12-11T08:30:51.627Z,11.20
2018-12-11T08:31:51.611Z,10.30
2018-12-11T08:32:51.594Z,11.70
2018-12-11T08:33:51.590Z,10.40
2018-12-11T08:34:52.614Z,10.40
2018-12-11T08:35:51.564Z,10.80
2018-12-11T08:36:51.551Z,11.60
2018-12-11T08:37:51.543Z,11.40
2018-12-11T08:38:51.534Z,11.40
2018-12-11T08:39:51.585Z,11.30
2018-12-11T08:40:51.509Z,10.70
2018-12-11T08:41:51.496Z,10.00
2018-12-11T08:42:51.493Z,11.00
2018-12-11T08:43:51.476Z,10.70
2018-12-11T08:44:51.520Z,9.90
2018-12-11T08:45:51.452Z,10.00
2018-12-11T08:46:51.493Z,9.60
2018-12-11T08:47:51.427Z,11.30
2018-12-11T08:48:51.421Z,10.70
2018-12-11T08:49:51.408Z,9.20
2018-12-11T08:50:51.419Z,10.10
2018-12-11T08:51:51.392Z,11.00
2018-12-11T08:52:51.376Z,11.10
2018-12-11T08:53:51.372Z,9.00
2018-12-11T08:54:51.363Z,10.70
2018-12-11T08:55:51.366Z,11.10
2018-12-11T08:56:51.365Z,10.80
2018-12-11T08:57:51.387Z,10.40
2018-12-11T08:58:51.314Z,11.10
2018-12-11T08:59:51.301Z,10.80
2018-12-11T09:00:51.317Z,10.60
2018-12-11T09:01:51.279Z,11.90
2018-12-11T09:02:51.266Z,12.30
2018-12-11T09:03:51.259Z,11.80
2018-12-11T09:04:51.290Z,11.70
2018-12-11T09:05:51.386Z,12.40
2018-12-11T09:06:51.224Z,11.50
2018-12-11T09:07:51.214Z,10.80
2018-12-11T09:08:51.217Z,10.80
2018-12-11T09:09:51.216Z,11.20
2018-12-11T09:10:51.265Z,10.60
2018-12-11T09:11:51.199Z,10.20
2018-12-11T09:12:51.155Z,9.60
2018-12-11T09:13:51.146Z,10.00
2018-12-11T09:14:51.136Z,10.60
2018-12-11T09:15:51.147Z,10.00
2018-12-11T09:16:51.111Z,10.10
2018-12-11T09:17:51.101Z,10.40
2018-12-11T09:18:51.096Z,11.60
2018-12-11T09:19:51.095Z,10.80
2018-12-11T09:20:51.118Z,11.20
2018-12-11T09:21:51.056Z,11.60
2018-12-11T09:22:51.059Z,10.60
2018-12-11T09:23:51.039Z,11.90
2018-12-11T09:24:51.039Z,10.80
2018-12-11T09:25:51.062Z,10.40
2018-12-11T09:26:51.001Z,10.90
2018-12-11T09:27:50.988Z,10.80
2018-12-11T09:28:50.979Z,11.30
2018-12-11T09:29:50.968Z,10.30
2018-12-11T09:30:50.988Z,12.20
2018-12-11T09:31:50.969Z,11.10
2018-12-11T09:32:50.943Z,10.70
2018-12-11T09:33:50.928Z,9.10
2018-12-11T09:34:50.936Z,9.40
2018-12-11T09:35:50.935Z,9.40
2018-12-11T09:36:50.929Z,10.80
2018-12-11T09:37:50.939Z,10.60
2018-12-11T09:38:50.871Z,10.40
2018-12-11T09:39:50.894Z,9.20
2018-12-11T09:40:50.875Z,10.50
2018-12-11T09:41:51.711Z,9.50
2018-12-11T09:42:50.888Z,9.60
2018-12-11T09:43:50.847Z,11.00
2018-12-11T09:44:50.835Z,11.90
2018-12-11T09:45:51.039Z,11.20
2018-12-11T09:46:50.797Z,10.70
2018-12-11T09:47:50.823Z,11.30
2018-12-11T09:48:50.799Z,12.10
2018-12-11T09:49:50.746Z,11.20
2018-12-11T09:50:50.760Z,11.70
2018-12-11T09:51:50.730Z,12.00
2018-12-11T09:52:50.711Z,11.90
2018-12-11T09:53:50.762Z,11.50
2018-12-11T09:54:50.690Z,13.30
2018-12-11T09:55:50.803Z,12.80
2018-12-11T09:56:50.779Z,11.70
2018-12-11T09:57:50.717Z,11.10
2018-12-11T09:58:51.461Z,12.80
2018-12-11T09:59:50.652Z,13.20
2018-12-11T10:00:50.657Z,12.00
2018-12-11T10:01:50.634Z,12.70
2018-12-11T10:02:50.659Z,11.20
2018-12-11T10:03:50.597Z,12.20
2018-12-11T10:04:50.643Z,10.60
2018-12-11T10:05:50.591Z,10.60
2018-12-11T10:06:50.555Z,10.00
2018-12-11T10:07:50.544Z,10.40
2018-12-11T10:08:50.534Z,10.80
2018-12-11T10:09:50.529Z,10.60
2018-12-11T10:10:50.618Z,8.80
2018-12-11T10:11:50.506Z,9.70
2018-12-11T10:12:50.491Z,9.90
2018-12-11T10:13:50.481Z,10.70
2018-12-11T10:14:50.468Z,8.30
2018-12-11T10:15:50.502Z,8.40
2018-12-11T10:16:50.444Z,9.80
2018-12-11T10:17:50.435Z,7.80
2018-12-11T10:18:50.422Z,9.40
2018-12-11T10:19:50.424Z,9.60
2018-12-11T10:20:50.461Z,9.70
2018-12-11T10:21:50.424Z,9.50
2018-12-11T10:22:50.379Z,9.60
2018-12-11T10:23:50.366Z,10.60
2018-12-11T10:24:50.357Z,11.40
2018-12-11T10:25:50.348Z,9.50
2018-12-11T10:26:50.358Z,9.30
2018-12-11T10:27:50.337Z,8.40
2018-12-11T10:28:50.312Z,8.30
2018-12-11T10:29:50.311Z,10.00
2018-12-11T10:30:50.296Z,10.30
2018-12-11T10:31:50.302Z,9.90
2018-12-11T10:32:50.322Z,10.70
2018-12-11T10:33:50.258Z,10.20
2018-12-11T10:34:50.250Z,11.50
2018-12-11T10:35:50.237Z,10.10
2018-12-11T10:36:50.247Z,10.40
2018-12-11T10:37:50.216Z,10.20
2018-12-11T10:38:50.212Z,11.30
2018-12-11T10:39:50.190Z,11.30
2018-12-11T10:40:50.195Z,11.10
2018-12-11T10:41:50.271Z,11.40
2018-12-11T10:42:50.172Z,12.60
2018-12-11T10:43:50.149Z,11.80
2018-12-11T10:44:50.135Z,11.20
2018-12-11T10:45:50.210Z,12.80
2018-12-11T10:46:50.154Z,12.60
2018-12-11T10:47:50.105Z,11.90
2018-12-11T10:48:50.175Z,12.20
2018-12-11T10:49:50.080Z,12.50
2018-12-11T10:50:50.070Z,12.40
2018-12-11T10:51:50.083Z,12.30
2018-12-11T10:52:50.100Z,12.80
2018-12-11T10:53:50.036Z,13.30
2018-12-11T10:54:50.035Z,12.50
2018-12-11T10:55:50.128Z,11.30
2018-12-11T10:56:50.044Z,12.50
2018-12-11T10:57:50.000Z,11.30
2018-12-11T10:58:49.999Z,12.60
2018-12-11T10:59:49.995Z,13.80
2018-12-11T11:00:49.961Z,13.10
2018-12-11T11:01:49.978Z,13.70
2018-12-11T11:02:49.964Z,12.90
2018-12-11T11:03:49.928Z,12.90
2018-12-11T11:04:49.945Z,12.40
2018-12-11T11:05:49.902Z,12.50
2018-12-11T11:06:49.898Z,12.90
2018-12-11T11:07:51.876Z,13.40
2018-12-11T11:08:50.097Z,13.60
2018-12-11T11:09:49.965Z,12.20
2018-12-11T11:10:49.981Z,12.80
2018-12-11T11:11:49.913Z,13.00
2018-12-11T11:12:50.057Z,13.60
2018-12-11T11:13:51.372Z,13.70
2018-12-11T11:14:49.998Z,12.90
2018-12-11T11:15:50.077Z,13.80
2018-12-11T11:16:49.914Z,14.10
2018-12-11T11:17:49.883Z,13.00
2018-12-11T11:18:50.879Z,13.70
2018-12-11T11:19:49.980Z,10.60
2018-12-11T11:20:50.225Z,10.10
2018-12-11T11:21:49.793Z,10.50
2018-12-11T11:22:49.821Z,9.60
2018-12-11T11:23:49.814Z,9.90
2018-12-11T11:24:50.932Z,10.10
2018-12-11T11:25:49.928Z,10.10
2018-12-11T11:26:49.859Z,10.40
2018-12-11T11:27:49.837Z,9.20
2018-12-11T11:28:49.723Z,10.10
2018-12-11T11:29:50.878Z,10.00
2018-12-11T11:30:49.853Z,10.40
2018-12-11T11:31:49.756Z,10.10
2018-12-11T11:32:49.745Z,10.30
2018-12-11T11:33:56.332Z,9.80
2018-12-11T11:34:50.691Z,10.50
2018-12-11T11:35:50.905Z,8.40
2018-12-11T11:36:49.669Z,8.60
2018-12-11T11:37:49.789Z,7.90
2018-12-11T11:38:49.671Z,7.50
2018-12-11T11:39:49.659Z,7.90
2018-12-11T11:40:50.868Z,7.10
2018-12-11T11:41:49.687Z,6.00
2018-12-11T11:42:49.635Z,7.50
2018-12-11T11:43:50.870Z,7.70
2018-12-11T11:44:50.848Z,7.50
2018-12-11T11:45:49.731Z,6.90
2018-12-11T11:46:50.356Z,7.00
2018-12-11T11:47:49.538Z,7.40
2018-12-11T11:48:49.543Z,8.00
2018-12-11T11:49:49.576Z,8.70
2018-12-11T11:50:49.657Z,8.30
2018-12-11T11:51:49.550Z,8.10
2018-12-11T11:52:50.626Z,9.10
2018-12-11T11:53:49.469Z,9.00
2018-12-11T11:54:49.513Z,8.70
2018-12-11T11:55:50.603Z,8.90
2018-12-11T11:56:49.526Z,9.30
2018-12-11T11:57:49.561Z,9.00
2018-12-11T11:58:50.353Z,8.50
2018-12-11T11:59:50.876Z,8.40
2018-12-11T12:00:49.874Z,7.90
2018-12-11T12:01:49.909Z,8.20
2018-12-11T12:02:49.484Z,8.70
2018-12-11T12:03:49.398Z,8.30
2018-12-11T12:04:49.909Z,8.40
2018-12-11T12:05:49.385Z,7.40
2018-12-11T12:06:50.004Z,6.20
2018-12-11T12:07:51.498Z,7.30
2018-12-11T12:08:51.998Z,6.40
2018-12-11T12:09:49.250Z,6.70
2018-12-11T12:10:49.374Z,6.10
2018-12-11T12:11:49.261Z,5.40
2018-12-11T12:12:50.518Z,6.50
2018-12-11T12:13:49.270Z,5.20
2018-12-11T12:14:49.284Z,4.80
2018-12-11T12:15:49.277Z,5.00
2018-12-11T12:16:49.199Z,4.80
2018-12-11T12:17:50.379Z,4.20
2018-12-11T12:18:49.198Z,4.10
2018-12-11T12:19:49.185Z,4.20
2018-12-11T12:20:49.166Z,4.10
2018-12-11T12:21:49.174Z,4.80
2018-12-11T12:22:49.281Z,4.60
2018-12-11T12:23:49.871Z,4.70
2018-12-11T12:24:49.184Z,4.80
2018-12-11T12:25:49.190Z,5.50
2018-12-11T12:26:49.101Z,5.20
2018-12-11T12:27:49.215Z,5.80
2018-12-11T12:28:49.922Z,5.50
2018-12-11T12:29:49.067Z,5.20
2018-12-11T12:30:49.095Z,6.00
2018-12-11T12:31:49.033Z,6.10
2018-12-11T12:32:49.140Z,6.70
2018-12-11T12:33:49.032Z,6.50
2018-12-11T12:34:49.870Z,6.30
2018-12-11T12:35:49.034Z,6.00
2018-12-11T12:36:49.036Z,6.20
2018-12-11T12:37:49.045Z,5.40
2018-12-11T12:38:48.977Z,6.90
2018-12-11T12:39:49.874Z,7.00
2018-12-11T12:40:49.114Z,7.20
2018-12-11T12:41:49.013Z,8.10
2018-12-11T12:42:49.000Z,8.20
2018-12-11T12:43:48.938Z,7.50
2018-12-11T12:44:49.038Z,7.60
2018-12-11T12:45:49.845Z,8.30
2018-12-11T12:46:49.908Z,7.70
2018-12-11T12:47:49.062Z,8.10
2018-12-11T12:48:48.881Z,8.80
2018-12-11T12:49:50.770Z,8.50
2018-12-11T12:50:49.843Z,8.10
2018-12-11T12:51:48.869Z,8.80
2018-12-11T12:52:48.977Z,8.60
2018-12-11T12:53:48.880Z,8.60
2018-12-11T12:54:48.882Z,8.90
2018-12-11T12:55:49.870Z,8.90
2018-12-11T12:56:48.793Z,8.80
2018-12-11T12:57:48.902Z,8.20
2018-12-11T12:58:48.804Z,8.90
2018-12-11T12:59:48.847Z,9.10
2018-12-11T13:00:48.749Z,8.90
2018-12-11T13:01:49.843Z,8.70
2018-12-11T13:02:50.087Z,7.00
2018-12-11T13:03:48.730Z,7.40
2018-12-11T13:04:48.735Z,6.90
2018-12-11T13:05:48.740Z,7.70
2018-12-11T13:06:49.872Z,7.10
2018-12-11T13:07:48.886Z,7.00